Aviation Digital Data Service (ADDS)

Output produced by METARs form (0118 UTC 17 July 2019)
found at http://www.aviationweather.gov/metar/data/
 
VQPR 170100Z VRB02KT 6000 FEW015 SCT030 BKN070 16/14 Q1018